Search for airport 
image banner adimage banner adimage banner ad
image banner ad

O21 - Hoopa

Located in Hoopa, United States

ICAO - O21, IATA -

Data provided by Airmate  

General information

Coordinates: N41°2'29" W123°40'4"
Elevation is 356 feet MSL.
Magnetic variation is 17° East
View others Airports in California

Operational data

Special qualification required
Current time UTC:
Current local time:
Weather at : KACV - Arcata ( 38 km )
METAR: KACV 141153Z AUTO 00000KT 3SM -RA BR OVC028 14/13 A3000 RMK AO2 SLP162 P0010 60028 70157 T01390133 10144 20128 53007
TAF: KACV 141130Z 1412/1512 VRB05KT 3SM -RA BR BKN010 OVC018 TEMPO 1412/1414 1SM BR BKN005 FM141600 29007KT 2SM BR OVC010 FM142000 29008KT 6SM BR OVC015 FM150300 33002KT 6SM BR SCT007 BKN015 FM150900 VRB03KT 5SM BR BKN007
View NOTAMs / SUP AIP / TFR affecting this airport [VIEW]
Communications frequencies: [VIEW]

Runways:

RWY identifierQFULength (ft)Width (ft)SurfaceLDA (ft)
14232550ASPH
32232550ASPH

Airport contact information

Address: Hoopa United States

Satellite view of O21